Terminal Aerodrome Forecast
Issued by NWS

Home | Current Version | Previous Version | Text Only | Print | Product List | Glossary On
Versions: 1 2 3 4 5 6 7 8 9 10 11 12 13 14 15
000
FTUS46 KLOX 242300 RRA
TAFBUR
TAF
KBUR 242340Z 2500/2524 17008KT P6SM SKC
     FM250300 13005KT P6SM SKC
     FM251100 VRB03KT P6SM BKN015
     FM251400 15006KT P6SM OVC017
     FM251800 15010KT P6SM OVC020
     FM252000 18011KT P6SM SCT020 BKN100=

USA.gov is the U.S. government's official web portal to all federal, state and local government web resources and services.